createdAt,value
2023-02-15T00:01:38.596Z,2.66
2023-02-15T00:04:07.452Z,2.65
2023-02-15T00:06:35.150Z,2.64
2023-02-15T00:09:03.806Z,2.58
2023-02-15T00:11:50.731Z,2.57
2023-02-15T00:14:21.651Z,2.59
2023-02-15T00:16:51.072Z,2.56
2023-02-15T00:19:20.846Z,2.41
2023-02-15T00:21:50.034Z,2.56
2023-02-15T00:24:20.264Z,2.47
2023-02-15T00:26:48.953Z,2.43
2023-02-15T00:29:19.943Z,2.45
2023-02-15T00:31:48.230Z,2.43
2023-02-15T00:34:18.526Z,2.42
2023-02-15T00:36:46.932Z,2.41
2023-02-15T00:39:15.550Z,2.40
2023-02-15T00:41:43.429Z,2.37
2023-02-15T00:44:11.449Z,2.22
2023-02-15T00:46:40.607Z,2.28
2023-02-15T00:49:08.369Z,2.28
2023-02-15T00:51:36.113Z,2.25
2023-02-15T00:54:03.799Z,2.20
2023-02-15T00:56:31.477Z,2.21
2023-02-15T00:58:59.110Z,2.22
2023-02-15T01:01:26.802Z,2.19
2023-02-15T01:03:55.979Z,2.14
2023-02-15T01:06:23.670Z,2.12
2023-02-15T01:08:51.384Z,2.13
2023-02-15T01:11:22.987Z,2.10
2023-02-15T01:13:51.594Z,2.00
2023-02-15T01:16:19.635Z,1.70
2023-02-15T01:18:47.544Z,1.90
2023-02-15T01:21:18.488Z,1.90
2023-02-15T01:23:46.726Z,1.89
2023-02-15T01:26:15.101Z,1.93
2023-02-15T01:28:42.832Z,1.96
2023-02-15T01:31:12.461Z,1.94
2023-02-15T01:33:42.343Z,1.92
2023-02-15T01:36:09.942Z,1.75
2023-02-15T01:38:40.781Z,1.73
2023-02-15T01:41:24.830Z,1.80
2023-02-15T01:43:54.799Z,1.73
2023-02-15T01:46:28.863Z,1.76
2023-02-15T01:49:01.574Z,1.78
2023-02-15T01:51:32.915Z,1.70
2023-02-15T01:54:07.366Z,1.74
2023-02-15T01:56:38.026Z,1.73
2023-02-15T01:59:10.200Z,1.69
2023-02-15T02:01:38.737Z,1.70
2023-02-15T02:04:14.062Z,1.68
2023-02-15T02:06:42.160Z,1.47
2023-02-15T02:09:11.570Z,1.42
2023-02-15T02:11:41.310Z,1.49
2023-02-15T02:14:09.243Z,1.56
2023-02-15T02:16:45.058Z,1.53
2023-02-15T02:19:39.214Z,1.51
2023-02-15T02:22:51.255Z,1.47
2023-02-15T02:25:38.645Z,1.45
2023-02-15T02:28:24.325Z,1.47
2023-02-15T02:31:14.702Z,1.46
2023-02-15T02:33:52.919Z,1.38
2023-02-15T02:36:26.932Z,1.38
2023-02-15T02:39:08.303Z,1.50
2023-02-15T02:41:44.915Z,1.46
2023-02-15T02:44:18.479Z,1.46
2023-02-15T02:46:52.753Z,1.30
2023-02-15T02:57:06.177Z,1.44
2023-02-15T02:59:38.836Z,0.80
2023-02-15T03:02:13.911Z,1.35
2023-02-15T03:04:45.680Z,1.35
2023-02-15T03:07:17.156Z,1.22
2023-02-15T03:09:48.393Z,1.29
2023-02-15T03:12:21.410Z,1.28
2023-02-15T03:14:52.858Z,1.17
2023-02-15T03:17:24.436Z,1.19
2023-02-15T03:19:56.597Z,1.30
2023-02-15T03:22:30.600Z,1.32
2023-02-15T03:25:04.160Z,1.22
2023-02-15T03:27:37.052Z,1.08
2023-02-15T03:30:07.776Z,1.21
2023-02-15T03:32:39.358Z,1.21
2023-02-15T03:35:08.123Z,1.18
2023-02-15T03:37:39.452Z,1.23
2023-02-15T03:40:26.423Z,1.19
2023-02-15T03:43:02.648Z,1.19
2023-02-15T03:45:35.174Z,1.21
2023-02-15T03:48:04.183Z,1.25
2023-02-15T03:50:51.010Z,1.24
2023-02-15T03:53:22.826Z,1.23
2023-02-15T03:55:51.349Z,1.18
2023-02-15T03:58:37.718Z,1.08
2023-02-15T04:01:29.306Z,1.11
2023-02-15T04:04:01.276Z,1.15
2023-02-15T04:06:29.059Z,1.13
2023-02-15T04:09:14.550Z,1.12
2023-02-15T04:11:42.270Z,1.14
2023-02-15T04:14:25.312Z,1.15
2023-02-15T04:16:53.109Z,1.10
2023-02-15T04:19:38.616Z,1.09
2023-02-15T04:22:24.004Z,1.09
2023-02-15T04:25:09.368Z,1.11
2023-02-15T04:27:37.480Z,1.05
2023-02-15T04:30:07.759Z,1.00
2023-02-15T04:32:35.537Z,0.38
2023-02-15T04:35:03.631Z,1.00
2023-02-15T04:37:31.447Z,0.94
2023-02-15T04:39:59.456Z,1.03
2023-02-15T04:42:27.435Z,1.02
2023-02-15T04:44:55.701Z,0.98
2023-02-15T04:47:24.844Z,0.89
2023-02-15T04:49:52.502Z,-0.05
2023-02-15T04:52:20.228Z,1.03
2023-02-15T04:54:48.006Z,0.90
2023-02-15T04:57:15.771Z,0.86
2023-02-15T04:59:43.440Z,0.96
2023-02-15T05:02:11.166Z,1.06
2023-02-15T05:04:40.274Z,1.04
2023-02-15T05:07:07.971Z,1.08
2023-02-15T05:09:35.726Z,0.99
2023-02-15T05:12:03.375Z,0.64
2023-02-15T05:14:31.084Z,1.06
2023-02-15T05:17:01.879Z,1.13
2023-02-15T05:19:29.689Z,1.15
2023-02-15T05:21:58.676Z,1.07
2023-02-15T05:24:43.825Z,1.13
2023-02-15T05:27:30.696Z,1.05
2023-02-15T05:29:58.436Z,1.10
2023-02-15T05:32:26.432Z,0.52
2023-02-15T05:34:54.219Z,1.10
2023-02-15T05:37:23.249Z,1.04
2023-02-15T05:39:50.890Z,1.04
2023-02-15T05:42:18.507Z,1.02
2023-02-15T05:44:46.552Z,0.37
2023-02-15T05:47:14.253Z,1.04
2023-02-15T05:49:41.958Z,0.96
2023-02-15T05:52:09.593Z,1.03
2023-02-15T05:54:38.623Z,0.95
2023-02-15T05:57:06.227Z,0.92
2023-02-15T05:59:33.861Z,0.80
2023-02-15T06:02:01.516Z,0.94
2023-02-15T06:04:29.340Z,0.95
2023-02-15T06:06:56.989Z,0.97
2023-02-15T06:09:24.806Z,0.91
2023-02-15T06:11:53.871Z,1.01
2023-02-15T06:14:21.956Z,0.98
2023-02-15T06:16:49.575Z,0.92
2023-02-15T06:19:17.575Z,0.91
2023-02-15T06:21:45.920Z,0.88
2023-02-15T06:24:13.779Z,0.88
2023-02-15T06:26:41.437Z,0.84
2023-02-15T06:29:10.498Z,0.79
2023-02-15T06:31:38.259Z,0.88
2023-02-15T06:34:06.901Z,0.85
2023-02-15T06:36:34.615Z,0.80
2023-02-15T06:39:03.145Z,0.87
2023-02-15T06:41:30.846Z,0.92
2023-02-15T06:43:58.526Z,0.35
2023-02-15T06:46:27.858Z,0.82
2023-02-15T06:48:55.518Z,0.81
2023-02-15T06:51:23.121Z,0.82
2023-02-15T06:53:50.806Z,0.88
2023-02-15T06:56:18.448Z,0.92
2023-02-15T06:58:47.099Z,0.89
2023-02-15T07:01:14.896Z,0.74
2023-02-15T07:03:43.949Z,0.83
2023-02-15T07:06:12.272Z,0.92
2023-02-15T07:08:41.112Z,0.90
2023-02-15T07:11:37.983Z,0.90
2023-02-15T07:14:05.758Z,0.84
2023-02-15T07:16:33.497Z,0.87
2023-02-15T07:19:02.755Z,0.89
2023-02-15T07:21:30.558Z,0.97
2023-02-15T07:23:59.355Z,0.92
2023-02-15T07:26:27.092Z,0.98
2023-02-15T07:28:54.851Z,1.08
2023-02-15T07:31:22.600Z,1.03
2023-02-15T07:33:50.351Z,1.12
2023-02-15T07:36:19.416Z,1.13
2023-02-15T07:38:47.872Z,1.15
2023-02-15T07:41:17.329Z,1.19
2023-02-15T07:43:46.729Z,1.27
2023-02-15T07:46:16.523Z,1.27
2023-02-15T07:48:45.720Z,1.05
2023-02-15T07:51:15.435Z,1.30
2023-02-15T07:53:45.050Z,1.50
2023-02-15T07:56:14.677Z,1.47
2023-02-15T07:58:54.881Z,1.55
2023-02-15T08:01:24.951Z,1.61
2023-02-15T08:03:52.679Z,1.61
2023-02-15T08:06:21.260Z,1.54
2023-02-15T08:08:50.362Z,1.65
2023-02-15T08:11:37.443Z,1.68
2023-02-15T08:14:07.725Z,1.60
2023-02-15T08:16:37.562Z,1.81
2023-02-15T08:19:08.018Z,1.90
2023-02-15T08:21:37.485Z,1.99
2023-02-15T08:24:08.583Z,1.93
2023-02-15T08:26:37.397Z,1.98
2023-02-15T08:29:05.386Z,2.06
2023-02-15T08:31:33.166Z,2.19
2023-02-15T08:34:02.034Z,2.22
2023-02-15T08:36:32.509Z,2.28
2023-02-15T08:39:01.872Z,1.86
2023-02-15T08:41:32.724Z,2.40
2023-02-15T08:44:02.500Z,2.57
2023-02-15T08:46:34.071Z,2.63
2023-02-15T08:49:01.863Z,2.48
2023-02-15T08:51:31.389Z,2.78
2023-02-15T08:54:00.770Z,2.88
2023-02-15T08:56:32.745Z,2.82
2023-02-15T08:59:00.894Z,3.19
2023-02-15T09:01:30.919Z,3.33
2023-02-15T09:04:00.331Z,3.36
2023-02-15T09:06:29.900Z,3.39
2023-02-15T09:08:58.521Z,3.56
2023-02-15T09:11:28.269Z,3.68
2023-02-15T09:13:58.900Z,3.72
2023-02-15T09:16:28.560Z,3.78
2023-02-15T09:18:58.399Z,3.86
2023-02-15T09:21:27.538Z,3.95
2023-02-15T09:23:58.698Z,4.05
2023-02-15T09:26:27.540Z,4.16
2023-02-15T09:28:56.828Z,4.25
2023-02-15T09:31:27.852Z,3.89
2023-02-15T09:33:56.691Z,4.34
2023-02-15T09:36:26.577Z,4.46
2023-02-15T09:38:58.269Z,4.49
2023-02-15T09:41:45.529Z,4.64
2023-02-15T09:44:24.199Z,4.68
2023-02-15T09:47:08.687Z,4.80
2023-02-15T09:49:47.597Z,4.91
2023-02-15T09:52:33.120Z,4.84
2023-02-15T09:55:14.036Z,4.94
2023-02-15T09:57:52.392Z,5.05
2023-02-15T10:00:28.245Z,5.12
2023-02-15T10:03:14.345Z,5.26
2023-02-15T10:05:51.176Z,5.28
2023-02-15T10:09:02.050Z,5.30
2023-02-15T10:11:45.593Z,5.40
2023-02-15T10:14:46.393Z,5.55
2023-02-15T10:17:28.201Z,5.70
2023-02-15T10:20:11.990Z,5.81
2023-02-15T10:22:55.664Z,5.79
2023-02-15T10:25:34.197Z,5.95
2023-02-15T10:28:07.393Z,5.81
2023-02-15T10:30:46.738Z,5.88
2023-02-15T10:33:29.276Z,6.06
2023-02-15T10:36:08.651Z,6.13
2023-02-15T10:38:41.991Z,6.23
2023-02-15T10:41:28.597Z,6.28
2023-02-15T10:44:14.654Z,6.51
2023-02-15T10:46:57.289Z,6.58
2023-02-15T10:49:36.925Z,6.69
2023-02-15T10:52:19.811Z,6.72
2023-02-15T10:54:52.075Z,6.92
2023-02-15T10:57:28.774Z,7.12
2023-02-15T11:00:07.257Z,7.91
2023-02-15T11:02:48.942Z,8.08
2023-02-15T11:05:28.879Z,8.49
2023-02-15T11:08:02.503Z,7.83
2023-02-15T11:10:35.037Z,8.05
2023-02-15T11:13:07.528Z,7.96
2023-02-15T11:15:39.004Z,7.37
2023-02-15T11:18:13.997Z,8.05
2023-02-15T11:20:48.657Z,7.93
2023-02-15T11:23:19.426Z,8.08
2023-02-15T11:25:54.286Z,8.27
2023-02-15T11:28:27.056Z,8.42
2023-02-15T11:30:58.715Z,8.65
2023-02-15T11:33:31.608Z,8.72
2023-02-15T11:36:06.477Z,8.83
2023-02-15T11:38:36.112Z,8.73
2023-02-15T11:41:05.813Z,8.58
2023-02-15T11:43:39.636Z,8.74
2023-02-15T11:46:12.203Z,8.79
2023-02-15T11:48:41.074Z,8.93
2023-02-15T11:51:11.416Z,9.01
2023-02-15T11:53:40.834Z,9.15
2023-02-15T11:56:16.459Z,9.30
2023-02-15T11:58:47.553Z,9.14
2023-02-15T12:01:20.621Z,9.40
2023-02-15T12:03:50.190Z,9.30
2023-02-15T12:06:27.518Z,9.28
2023-02-15T12:09:04.621Z,9.42
2023-02-15T12:11:37.618Z,9.44
2023-02-15T12:14:07.335Z,9.48
2023-02-15T12:16:43.629Z,9.55
2023-02-15T12:19:26.619Z,9.77
2023-02-15T12:21:55.278Z,9.64
2023-02-15T12:24:26.904Z,9.96
2023-02-15T12:27:00.304Z,9.93
2023-02-15T12:29:30.938Z,9.89
2023-02-15T12:32:00.122Z,9.99
2023-02-15T12:34:31.921Z,10.06
2023-02-15T12:37:04.090Z,9.90
2023-02-15T12:39:33.956Z,9.11
2023-02-15T12:42:04.870Z,10.09
2023-02-15T12:44:34.227Z,10.18
2023-02-15T12:47:05.692Z,10.38
2023-02-15T12:49:34.975Z,10.36
2023-02-15T12:52:05.197Z,10.51
2023-02-15T12:54:41.039Z,10.55
2023-02-15T12:57:22.541Z,10.44
2023-02-15T12:59:52.245Z,10.42
2023-02-15T13:02:25.785Z,10.76
2023-02-15T13:04:54.683Z,10.43
2023-02-15T13:07:23.389Z,10.51
2023-02-15T13:09:52.359Z,10.57
2023-02-15T13:12:24.398Z,10.63
2023-02-15T13:14:55.757Z,10.79
2023-02-15T13:17:30.477Z,10.87
2023-02-15T13:20:02.731Z,10.76
2023-02-15T13:22:43.044Z,10.87
2023-02-15T13:25:17.084Z,10.92
2023-02-15T13:27:46.859Z,10.94
2023-02-15T13:30:33.086Z,10.89
2023-02-15T13:33:04.216Z,10.66
2023-02-15T13:35:40.653Z,10.71
2023-02-15T13:38:45.027Z,10.91
2023-02-15T13:41:18.785Z,10.12
2023-02-15T13:43:57.856Z,10.83
2023-02-15T13:46:49.574Z,11.10
2023-02-15T13:49:30.647Z,10.92
2023-02-15T13:52:10.646Z,10.84
2023-02-15T13:55:05.044Z,10.79
2023-02-15T13:57:57.184Z,10.27
2023-02-15T14:00:30.728Z,11.03
2023-02-15T14:03:40.922Z,10.95
2023-02-15T14:06:22.342Z,10.85
2023-02-15T14:09:05.693Z,10.91
2023-02-15T14:11:44.190Z,10.88
2023-02-15T14:14:41.018Z,10.72
2023-02-15T14:17:22.198Z,11.20
2023-02-15T14:19:53.576Z,10.99
2023-02-15T14:22:32.684Z,10.87
2023-02-15T14:25:19.265Z,10.85
2023-02-15T14:27:58.466Z,10.89
2023-02-15T14:30:32.787Z,10.78
2023-02-15T14:33:07.796Z,10.79
2023-02-15T14:35:36.276Z,10.90
2023-02-15T14:38:12.609Z,10.87
2023-02-15T14:41:05.055Z,10.79
2023-02-15T14:43:55.014Z,10.79
2023-02-15T14:46:32.323Z,10.93
2023-02-15T14:49:08.445Z,10.91
2023-02-15T14:52:06.261Z,10.82
2023-02-15T14:54:58.449Z,10.78
2023-02-15T14:57:28.821Z,10.68
2023-02-15T14:59:59.231Z,10.65
2023-02-15T15:02:31.725Z,10.59
2023-02-15T15:05:04.790Z,10.64
2023-02-15T15:07:40.670Z,10.77
2023-02-15T15:10:35.916Z,10.39
2023-02-15T15:13:42.366Z,10.30
2023-02-15T15:16:53.346Z,10.21
2023-02-15T15:20:09.173Z,10.22
2023-02-15T15:22:38.640Z,10.22
2023-02-15T15:25:11.504Z,9.60
2023-02-15T15:27:53.580Z,9.10
2023-02-15T15:31:01.657Z,10.07
2023-02-15T15:34:16.085Z,10.13
2023-02-15T15:37:17.844Z,10.00
2023-02-15T15:40:18.777Z,9.81
2023-02-15T15:43:12.764Z,9.97
2023-02-15T15:46:00.075Z,9.88
2023-02-15T15:48:34.348Z,9.69
2023-02-15T15:51:06.189Z,9.72
2023-02-15T15:53:42.284Z,9.72
2023-02-15T15:56:16.353Z,9.69
2023-02-15T15:58:48.234Z,9.65
2023-02-15T16:01:17.253Z,9.49
2023-02-15T16:03:52.576Z,9.38
2023-02-15T16:06:36.214Z,9.41
2023-02-15T16:09:15.344Z,9.41
2023-02-15T16:11:45.147Z,9.37
2023-02-15T16:14:16.030Z,9.34
2023-02-15T16:16:51.604Z,9.31
2023-02-15T16:19:24.123Z,9.33
2023-02-15T16:21:52.474Z,9.29
2023-02-15T16:24:56.687Z,9.24
2023-02-15T16:27:35.065Z,8.99
2023-02-15T16:30:22.011Z,8.33
2023-02-15T16:32:50.200Z,8.90
2023-02-15T16:35:20.629Z,8.99
2023-02-15T16:37:48.655Z,8.91
2023-02-15T16:40:33.020Z,8.88
2023-02-15T16:43:07.542Z,8.87
2023-02-15T16:45:38.035Z,8.79
2023-02-15T16:48:14.527Z,8.78
2023-02-15T16:50:48.226Z,8.75
2023-02-15T16:53:20.708Z,8.69
2023-02-15T16:55:52.309Z,8.68
2023-02-15T16:58:27.464Z,8.50
2023-02-15T17:00:58.787Z,8.51
2023-02-15T17:03:28.095Z,8.44
2023-02-15T17:05:57.606Z,8.41
2023-02-15T17:08:31.238Z,8.36
2023-02-15T17:11:12.826Z,8.32
2023-02-15T17:14:03.553Z,8.33
2023-02-15T17:16:34.280Z,8.33
2023-02-15T17:19:02.824Z,8.14
2023-02-15T17:21:34.588Z,8.24
2023-02-15T17:24:05.289Z,7.80
2023-02-15T17:26:36.257Z,8.24
2023-02-15T17:29:19.813Z,8.20
2023-02-15T17:31:50.667Z,8.29
2023-02-15T17:34:53.810Z,7.23
2023-02-15T17:37:28.389Z,8.14
2023-02-15T17:39:57.332Z,8.20
2023-02-15T17:42:25.099Z,8.15
2023-02-15T17:44:54.166Z,8.05
2023-02-15T17:47:25.754Z,8.03
2023-02-15T17:49:54.662Z,8.09
2023-02-15T17:52:22.412Z,8.03
2023-02-15T17:55:08.120Z,7.80
2023-02-15T17:57:36.546Z,7.54
2023-02-15T18:00:24.601Z,7.90
2023-02-15T18:03:12.272Z,7.64
2023-02-15T18:05:57.930Z,7.79
2023-02-15T18:08:46.676Z,7.85
2023-02-15T18:11:32.830Z,7.77
2023-02-15T18:14:01.728Z,7.60
2023-02-15T18:16:34.629Z,7.67
2023-02-15T18:19:04.861Z,7.70
2023-02-15T18:21:33.728Z,7.72
2023-02-15T18:24:01.834Z,7.52
2023-02-15T18:26:30.153Z,7.79
2023-02-15T18:28:58.229Z,7.73
2023-02-15T18:31:26.933Z,7.80
2023-02-15T18:33:59.343Z,7.69
2023-02-15T18:36:30.213Z,7.21
2023-02-15T18:38:58.455Z,7.64
2023-02-15T18:41:27.065Z,7.52
2023-02-15T18:43:55.514Z,7.45
2023-02-15T18:46:23.973Z,7.56
2023-02-15T18:48:51.937Z,7.30
2023-02-15T18:51:23.703Z,7.22
2023-02-15T18:53:54.094Z,7.43
2023-02-15T18:56:24.641Z,7.47
2023-02-15T18:58:52.687Z,7.43
2023-02-15T19:01:22.415Z,7.40
2023-02-15T19:03:51.750Z,7.45
2023-02-15T19:06:23.142Z,7.51
2023-02-15T19:08:53.977Z,7.55
2023-02-15T19:11:25.984Z,6.55
2023-02-15T19:13:55.475Z,7.59
2023-02-15T19:16:30.617Z,7.60
2023-02-15T19:18:59.071Z,7.63
2023-02-15T19:21:29.331Z,7.65
2023-02-15T19:24:02.391Z,7.60
2023-02-15T19:26:44.648Z,7.56
2023-02-15T19:29:15.230Z,7.57
2023-02-15T19:31:43.628Z,7.65
2023-02-15T19:34:15.840Z,7.55
2023-02-15T19:36:47.487Z,7.20
2023-02-15T19:39:25.628Z,7.49
2023-02-15T19:41:53.768Z,7.56
2023-02-15T19:44:21.941Z,7.61
2023-02-15T19:46:49.828Z,7.55
2023-02-15T19:49:18.114Z,7.44
2023-02-15T19:51:47.680Z,7.48
2023-02-15T19:54:30.915Z,7.39
2023-02-15T19:56:59.416Z,7.45
2023-02-15T19:59:29.868Z,7.39
2023-02-15T20:01:58.679Z,7.42
2023-02-15T20:04:27.124Z,7.40
2023-02-15T20:07:00.639Z,7.45
2023-02-15T20:09:33.775Z,7.35
2023-02-15T20:12:01.446Z,7.37
2023-02-15T20:14:29.034Z,7.33
2023-02-15T20:16:56.691Z,7.25
2023-02-15T20:19:24.613Z,7.38
2023-02-15T20:21:55.045Z,7.42
2023-02-15T20:24:32.698Z,7.24
2023-02-15T20:27:00.704Z,7.36
2023-02-15T20:29:28.701Z,7.34
2023-02-15T20:32:00.953Z,7.26
2023-02-15T20:34:28.807Z,7.22
2023-02-15T20:36:56.514Z,7.25
2023-02-15T20:39:25.462Z,7.15
2023-02-15T20:41:53.106Z,7.22
2023-02-15T20:44:24.530Z,7.04
2023-02-15T20:46:53.543Z,6.82
2023-02-15T20:49:21.340Z,7.09
2023-02-15T20:51:49.481Z,6.99
2023-02-15T20:54:19.439Z,7.12
2023-02-15T20:56:49.386Z,7.05
2023-02-15T20:59:25.579Z,7.03
2023-02-15T21:01:57.871Z,7.02
2023-02-15T21:04:30.430Z,6.83
2023-02-15T21:06:58.069Z,6.82
2023-02-15T21:09:25.736Z,6.94
2023-02-15T21:11:57.017Z,6.90
2023-02-15T21:14:27.996Z,6.87
2023-02-15T21:16:56.125Z,6.89
2023-02-15T21:19:25.612Z,6.92
2023-02-15T21:21:54.609Z,6.97
2023-02-15T21:24:25.370Z,6.76
2023-02-15T21:26:55.700Z,6.96
2023-02-15T21:29:26.018Z,6.88
2023-02-15T21:31:54.157Z,6.80
2023-02-15T21:34:21.993Z,6.75
2023-02-15T21:36:50.703Z,6.78
2023-02-15T21:39:22.154Z,6.71
2023-02-15T21:42:09.292Z,6.78
2023-02-15T21:44:56.092Z,6.71
2023-02-15T21:47:43.672Z,6.65
2023-02-15T21:50:31.134Z,6.66
2023-02-15T21:52:59.660Z,6.25
2023-02-15T21:55:27.613Z,6.67
2023-02-15T21:57:55.247Z,6.39
2023-02-15T22:00:25.907Z,6.52
2023-02-15T22:02:55.359Z,6.56
2023-02-15T22:05:25.958Z,6.54
2023-02-15T22:07:53.977Z,6.47
2023-02-15T22:10:22.813Z,6.48
2023-02-15T22:12:51.944Z,6.51
2023-02-15T22:15:21.159Z,6.46
2023-02-15T22:17:51.045Z,6.44
2023-02-15T22:20:21.247Z,6.42
2023-02-15T22:22:49.167Z,6.38
2023-02-15T22:25:18.626Z,6.40
2023-02-15T22:27:47.509Z,6.38
2023-02-15T22:30:23.734Z,6.24
2023-02-15T22:32:54.009Z,6.31
2023-02-15T22:35:25.160Z,6.24
2023-02-15T22:37:53.165Z,6.31
2023-02-15T22:40:22.312Z,6.27
2023-02-15T22:42:53.728Z,6.25
2023-02-15T22:45:24.290Z,6.13
2023-02-15T22:47:56.775Z,6.22
2023-02-15T22:50:26.439Z,6.17
2023-02-15T22:52:54.799Z,6.09
2023-02-15T22:55:24.850Z,6.11
2023-02-15T22:57:55.706Z,6.07
2023-02-15T23:00:26.311Z,6.02
2023-02-15T23:02:56.560Z,6.07
2023-02-15T23:05:27.205Z,6.07
2023-02-15T23:07:55.560Z,6.05
2023-02-15T23:10:25.901Z,5.61
2023-02-15T23:13:13.650Z,5.98
2023-02-15T23:15:43.266Z,6.01
2023-02-15T23:18:21.736Z,5.99
2023-02-15T23:20:52.664Z,5.83
2023-02-15T23:23:27.258Z,5.85
2023-02-15T23:25:54.950Z,5.89
2023-02-15T23:28:26.242Z,5.87
2023-02-15T23:30:54.450Z,5.86
2023-02-15T23:33:27.426Z,5.83
2023-02-15T23:35:55.102Z,5.83
2023-02-15T23:38:26.292Z,5.78
2023-02-15T23:41:20.002Z,5.73
2023-02-15T23:43:50.856Z,5.71
2023-02-15T23:46:25.664Z,5.51
2023-02-15T23:48:54.918Z,5.72
2023-02-15T23:51:24.150Z,5.63
2023-02-15T23:53:51.885Z,5.68
2023-02-15T23:56:19.565Z,5.62
2023-02-15T23:58:48.128Z,5.65
